This is the latest recevied weather packets stored in our database for station/object AD6NH. If no packets are shown the sender has not sent any weather packets the latest 10 day(s).
| Time | Temp. | Humidity | Pressure | Rain* | Wind** | Luminosity | Snow |
|---|---|---|---|---|---|---|---|
| 1778042823 | 15.56° C | 73% | 1017 hPa | 0 mm | - | - | - |
| 1778042223 | 15.56° C | 73% | 1017 hPa | 0 mm | - | - | - |
| 1778041622 | 15.56° C | 71% | 1016.9 hPa | 0 mm | - | - | - |
| 1778041022 | 15.56° C | 70% | 1017 hPa | 0 mm | - | - | - |
| 1778040423 | 16.11° C | 70% | 1016.7 hPa | 0 mm | - | - | - |
| 1778039823 | 16.11° C | 70% | 1016.4 hPa | 0 mm | - | - | - |
| 1778039222 | 16.11° C | 69% | 1016.4 hPa | 0 mm | - | - | - |
| 1778038622 | 16.11° C | 69% | 1016.3 hPa | 0 mm | - | - | - |
| 1778038023 | 16.11° C | 68% | 1016.1 hPa | 0 mm | - | - | - |
| 1778037423 | 16.11° C | 68% | 1016 hPa | 0 mm | - | - | - |
| 1778036823 | 16.11° C | 67% | 1016 hPa | 0 mm | - | - | - |
| 1778036222 | 16.67° C | 63% | 1015.5 hPa | 0 mm | - | - | - |
| 1778035622 | 16.67° C | 62% | 1015.5 hPa | 0 mm | - | - | - |
| 1778035023 | 17.22° C | 60% | 1015.4 hPa | 0 mm | - | - | - |
| 1778034423 | 17.22° C | 58% | 1015.2 hPa | 0 mm | - | - | - |
| 1778033823 | 17.78° C | 58% | 1015.3 hPa | 0 mm | - | - | - |
| 1778033222 | 17.78° C | 59% | 1015.1 hPa | 0 mm | - | - | - |
| 1778032623 | 18.89° C | 55% | 1014.9 hPa | 0 mm | - | - | - |
| 1778032022 | 18.89° C | 54% | 1014.9 hPa | 0 mm | - | - | - |
| 1778031423 | 19.44° C | 54% | 1014.8 hPa | 0 mm | - | - | - |
| 1778030823 | 19.44° C | 54% | 1014.7 hPa | 0 mm | - | - | - |
| 1778030222 | 21.11° C | 38% | 1014.7 hPa | 0 mm | - | - | - |
| 1778029622 | 21.11° C | 38% | 1014.8 hPa | 0 mm | - | - | - |
| 1778029023 | 21.11° C | 38% | 1014.7 hPa | 0 mm | - | - | - |
| 1778028422 | 21.11° C | 38% | 1014.6 hPa | 0 mm | - | - | - |
* Rain latest hour (hover to see other rain measurements)
** Current wind speed in m/s (hover to see current wind gust speed)